sensor_id;sensor_type;location;lat;lon;timestamp;P1;durP1;ratioP1;P2;durP2;ratioP2
66425;SDS011;53237;46.158;14.604;2024-03-23T00:54:16;4.80;;;3.38;;
66425;SDS011;53237;46.158;14.604;2024-03-23T00:56:42;3.50;;;3.00;;
66425;SDS011;53237;46.158;14.604;2024-03-23T00:59:08;6.32;;;3.10;;
66425;SDS011;53237;46.158;14.604;2024-03-23T01:01:34;3.95;;;3.15;;
66425;SDS011;53237;46.158;14.604;2024-03-23T01:04:00;3.35;;;3.05;;
66425;SDS011;53237;46.158;14.604;2024-03-23T01:06:26;4.03;;;2.72;;
66425;SDS011;53237;46.158;14.604;2024-03-23T01:08:52;5.30;;;3.17;;
66425;SDS011;53237;46.158;14.604;2024-03-23T01:11:18;4.88;;;3.03;;
66425;SDS011;53237;46.158;14.604;2024-03-23T01:13:44;4.90;;;3.00;;
66425;SDS011;53237;46.158;14.604;2024-03-23T01:16:10;4.07;;;3.03;;
66425;SDS011;53237;46.158;14.604;2024-03-23T01:18:36;4.22;;;2.70;;
66425;SDS011;53237;46.158;14.604;2024-03-23T01:21:02;4.47;;;2.75;;
66425;SDS011;53237;46.158;14.604;2024-03-23T01:23:28;5.90;;;3.17;;
66425;SDS011;53237;46.158;14.604;2024-03-23T01:25:54;6.72;;;3.17;;
66425;SDS011;53237;46.158;14.604;2024-03-23T01:28:20;3.53;;;2.63;;
66425;SDS011;53237;46.158;14.604;2024-03-23T01:30:47;4.65;;;3.47;;
66425;SDS011;53237;46.158;14.604;2024-03-23T01:33:13;5.07;;;3.08;;
66425;SDS011;53237;46.158;14.604;2024-03-23T01:35:39;3.45;;;3.00;;
66425;SDS011;53237;46.158;14.604;2024-03-23T01:38:05;4.15;;;2.90;;
66425;SDS011;53237;46.158;14.604;2024-03-23T01:40:32;4.75;;;3.17;;
66425;SDS011;53237;46.158;14.604;2024-03-23T01:43:05;3.40;;;2.85;;
66425;SDS011;53237;46.158;14.604;2024-03-23T01:45:31;4.68;;;3.45;;
66425;SDS011;53237;46.158;14.604;2024-03-23T01:47:57;4.82;;;3.42;;
66425;SDS011;53237;46.158;14.604;2024-03-23T01:50:24;4.25;;;3.17;;
66425;SDS011;53237;46.158;14.604;2024-03-23T01:52:50;4.18;;;3.20;;
66425;SDS011;53237;46.158;14.604;2024-03-23T01:55:16;5.18;;;3.45;;
66425;SDS011;53237;46.158;14.604;2024-03-23T01:57:42;4.85;;;3.15;;
66425;SDS011;53237;46.158;14.604;2024-03-23T02:00:08;6.28;;;3.35;;
66425;SDS011;53237;46.158;14.604;2024-03-23T02:02:40;5.97;;;3.60;;
66425;SDS011;53237;46.158;14.604;2024-03-23T02:05:06;5.13;;;3.67;;
66425;SDS011;53237;46.158;14.604;2024-03-23T02:07:33;5.50;;;3.65;;
66425;SDS011;53237;46.158;14.604;2024-03-23T02:09:59;5.15;;;3.65;;
66425;SDS011;53237;46.158;14.604;2024-03-23T02:12:25;7.55;;;3.92;;
66425;SDS011;53237;46.158;14.604;2024-03-23T02:14:51;5.13;;;3.53;;
66425;SDS011;53237;46.158;14.604;2024-03-23T02:17:17;5.60;;;4.32;;
66425;SDS011;53237;46.158;14.604;2024-03-23T02:19:43;5.10;;;2.90;;
66425;SDS011;53237;46.158;14.604;2024-03-23T02:22:11;5.72;;;3.42;;
66425;SDS011;53237;46.158;14.604;2024-03-23T02:24:37;4.60;;;3.45;;
66425;SDS011;53237;46.158;14.604;2024-03-23T02:27:03;5.18;;;3.65;;
66425;SDS011;53237;46.158;14.604;2024-03-23T02:29:30;5.00;;;3.35;;
66425;SDS011;53237;46.158;14.604;2024-03-23T02:31:55;5.97;;;3.67;;
66425;SDS011;53237;46.158;14.604;2024-03-23T02:34:23;5.88;;;3.42;;
66425;SDS011;53237;46.158;14.604;2024-03-23T02:36:49;4.78;;;3.15;;
66425;SDS011;53237;46.158;14.604;2024-03-23T02:39:15;5.03;;;3.65;;
66425;SDS011;53237;46.158;14.604;2024-03-23T02:41:41;6.38;;;3.40;;
66425;SDS011;53237;46.158;14.604;2024-03-23T02:44:07;5.65;;;3.20;;
66425;SDS011;53237;46.158;14.604;2024-03-23T02:46:36;7.50;;;4.00;;
66425;SDS011;53237;46.158;14.604;2024-03-23T02:49:02;6.00;;;3.80;;
66425;SDS011;53237;46.158;14.604;2024-03-23T02:51:29;4.57;;;3.65;;
66425;SDS011;53237;46.158;14.604;2024-03-23T02:53:55;4.78;;;3.50;;
66425;SDS011;53237;46.158;14.604;2024-03-23T02:56:21;6.18;;;3.65;;
66425;SDS011;53237;46.158;14.604;2024-03-23T02:58:48;5.57;;;3.28;;
66425;SDS011;53237;46.158;14.604;2024-03-23T03:01:14;5.82;;;3.30;;
66425;SDS011;53237;46.158;14.604;2024-03-23T03:03:40;5.60;;;3.42;;
66425;SDS011;53237;46.158;14.604;2024-03-23T03:06:06;6.18;;;3.60;;
66425;SDS011;53237;46.158;14.604;2024-03-23T03:08:32;7.25;;;3.22;;
66425;SDS011;53237;46.158;14.604;2024-03-23T03:10:58;6.40;;;4.20;;
66425;SDS011;53237;46.158;14.604;2024-03-23T03:13:24;5.40;;;3.45;;
66425;SDS011;53237;46.158;14.604;2024-03-23T03:15:50;4.03;;;3.28;;
66425;SDS011;53237;46.158;14.604;2024-03-23T03:18:16;4.60;;;3.05;;
66425;SDS011;53237;46.158;14.604;2024-03-23T03:20:42;4.55;;;3.50;;
66425;SDS011;53237;46.158;14.604;2024-03-23T03:23:08;4.35;;;3.28;;
66425;SDS011;53237;46.158;14.604;2024-03-23T03:25:34;6.05;;;3.75;;
66425;SDS011;53237;46.158;14.604;2024-03-23T03:28:00;6.22;;;4.40;;
66425;SDS011;53237;46.158;14.604;2024-03-23T03:30:27;5.75;;;4.78;;
66425;SDS011;53237;46.158;14.604;2024-03-23T03:32:53;6.82;;;3.85;;
66425;SDS011;53237;46.158;14.604;2024-03-23T03:35:20;5.43;;;3.55;;
66425;SDS011;53237;46.158;14.604;2024-03-23T03:37:46;5.75;;;3.92;;
66425;SDS011;53237;46.158;14.604;2024-03-23T03:40:12;5.60;;;3.53;;
66425;SDS011;53237;46.158;14.604;2024-03-23T03:42:40;4.93;;;3.25;;
66425;SDS011;53237;46.158;14.604;2024-03-23T03:45:06;5.10;;;3.30;;
66425;SDS011;53237;46.158;14.604;2024-03-23T03:47:32;4.93;;;3.08;;
66425;SDS011;53237;46.158;14.604;2024-03-23T03:49:58;4.70;;;3.40;;
66425;SDS011;53237;46.158;14.604;2024-03-23T03:52:24;5.78;;;3.85;;
66425;SDS011;53237;46.158;14.604;2024-03-23T03:54:51;4.25;;;2.97;;
66425;SDS011;53237;46.158;14.604;2024-03-23T03:57:17;4.30;;;3.20;;
66425;SDS011;53237;46.158;14.604;2024-03-23T03:59:43;4.60;;;3.13;;
66425;SDS011;53237;46.158;14.604;2024-03-23T04:02:09;4.28;;;3.08;;
66425;SDS011;53237;46.158;14.604;2024-03-23T04:04:35;4.90;;;3.20;;
66425;SDS011;53237;46.158;14.604;2024-03-23T04:07:01;4.57;;;2.90;;
66425;SDS011;53237;46.158;14.604;2024-03-23T04:09:27;7.47;;;3.40;;
66425;SDS011;53237;46.158;14.604;2024-03-23T04:11:55;5.97;;;3.55;;
66425;SDS011;53237;46.158;14.604;2024-03-23T04:14:21;4.07;;;2.78;;
66425;SDS011;53237;46.158;14.604;2024-03-23T04:16:47;5.15;;;2.97;;
66425;SDS011;53237;46.158;14.604;2024-03-23T04:19:13;4.05;;;3.20;;
66425;SDS011;53237;46.158;14.604;2024-03-23T04:21:39;3.65;;;2.60;;
66425;SDS011;53237;46.158;14.604;2024-03-23T04:24:05;3.97;;;2.78;;
66425;SDS011;53237;46.158;14.604;2024-03-23T04:26:40;4.05;;;2.53;;
66425;SDS011;53237;46.158;14.604;2024-03-23T04:29:06;4.35;;;2.53;;
66425;SDS011;53237;46.158;14.604;2024-03-23T04:31:32;6.10;;;3.00;;
66425;SDS011;53237;46.158;14.604;2024-03-23T04:33:59;3.45;;;2.78;;
66425;SDS011;53237;46.158;14.604;2024-03-23T04:36:25;4.57;;;2.42;;
66425;SDS011;53237;46.158;14.604;2024-03-23T04:38:51;5.40;;;2.90;;
66425;SDS011;53237;46.158;14.604;2024-03-23T04:41:17;4.47;;;2.78;;
66425;SDS011;53237;46.158;14.604;2024-03-23T04:43:43;3.92;;;2.83;;
66425;SDS011;53237;46.158;14.604;2024-03-23T04:46:09;3.85;;;2.67;;
66425;SDS011;53237;46.158;14.604;2024-03-23T04:48:35;2.92;;;2.50;;
66425;SDS011;53237;46.158;14.604;2024-03-23T04:51:02;4.25;;;2.90;;
66425;SDS011;53237;46.158;14.604;2024-03-23T04:53:28;3.75;;;2.47;;
66425;SDS011;53237;46.158;14.604;2024-03-23T04:55:57;3.08;;;2.75;;
66425;SDS011;53237;46.158;14.604;2024-03-23T04:58:27;4.95;;;2.65;;
66425;SDS011;53237;46.158;14.604;2024-03-23T05:00:56;3.03;;;2.63;;
66425;SDS011;53237;46.158;14.604;2024-03-23T05:03:23;3.92;;;2.70;;
66425;SDS011;53237;46.158;14.604;2024-03-23T05:05:49;4.20;;;2.63;;
66425;SDS011;53237;46.158;14.604;2024-03-23T05:08:15;3.67;;;2.47;;
66425;SDS011;53237;46.158;14.604;2024-03-23T05:10:44;3.15;;;2.30;;
66425;SDS011;53237;46.158;14.604;2024-03-23T05:13:11;4.10;;;2.65;;
66425;SDS011;53237;46.158;14.604;2024-03-23T05:15:37;4.63;;;2.50;;
66425;SDS011;53237;46.158;14.604;2024-03-23T05:18:04;3.17;;;2.30;;
66425;SDS011;53237;46.158;14.604;2024-03-23T05:20:30;3.00;;;2.17;;
66425;SDS011;53237;46.158;14.604;2024-03-23T05:22:56;2.72;;;2.28;;
66425;SDS011;53237;46.158;14.604;2024-03-23T05:25:22;2.75;;;2.28;;
66425;SDS011;53237;46.158;14.604;2024-03-23T05:27:48;2.85;;;2.10;;
66425;SDS011;53237;46.158;14.604;2024-03-23T05:30:14;3.38;;;2.22;;
66425;SDS011;53237;46.158;14.604;2024-03-23T05:32:40;3.72;;;2.50;;
66425;SDS011;53237;46.158;14.604;2024-03-23T05:35:07;3.70;;;2.10;;
66425;SDS011;53237;46.158;14.604;2024-03-23T05:37:33;2.83;;;2.08;;
66425;SDS011;53237;46.158;14.604;2024-03-23T05:40:00;3.90;;;2.30;;
66425;SDS011;53237;46.158;14.604;2024-03-23T05:42:26;2.83;;;2.10;;
66425;SDS011;53237;46.158;14.604;2024-03-23T05:44:52;4.20;;;2.40;;
66425;SDS011;53237;46.158;14.604;2024-03-23T05:47:18;3.08;;;2.28;;
66425;SDS011;53237;46.158;14.604;2024-03-23T05:49:45;3.72;;;2.58;;
66425;SDS011;53237;46.158;14.604;2024-03-23T05:52:12;2.45;;;2.25;;
66425;SDS011;53237;46.158;14.604;2024-03-23T05:54:38;3.33;;;2.40;;
66425;SDS011;53237;46.158;14.604;2024-03-23T05:57:04;3.60;;;2.10;;
66425;SDS011;53237;46.158;14.604;2024-03-23T05:59:32;3.30;;;2.53;;
66425;SDS011;53237;46.158;14.604;2024-03-23T06:01:58;3.33;;;2.33;;
66425;SDS011;53237;46.158;14.604;2024-03-23T06:04:24;4.38;;;2.28;;
66425;SDS011;53237;46.158;14.604;2024-03-23T06:06:51;2.80;;;2.28;;
66425;SDS011;53237;46.158;14.604;2024-03-23T06:09:20;3.42;;;2.65;;
66425;SDS011;53237;46.158;14.604;2024-03-23T06:11:46;2.88;;;2.22;;
66425;SDS011;53237;46.158;14.604;2024-03-23T06:14:12;3.63;;;2.42;;
66425;SDS011;53237;46.158;14.604;2024-03-23T06:16:38;3.22;;;2.28;;
66425;SDS011;53237;46.158;14.604;2024-03-23T06:19:04;3.17;;;2.20;;
66425;SDS011;53237;46.158;14.604;2024-03-23T06:21:31;5.32;;;3.55;;
66425;SDS011;53237;46.158;14.604;2024-03-23T06:23:58;4.57;;;2.50;;
66425;SDS011;53237;46.158;14.604;2024-03-23T06:26:24;3.33;;;2.65;;
66425;SDS011;53237;46.158;14.604;2024-03-23T06:28:50;2.58;;;2.20;;
66425;SDS011;53237;46.158;14.604;2024-03-23T06:31:16;2.75;;;2.40;;
66425;SDS011;53237;46.158;14.604;2024-03-23T06:33:43;3.45;;;2.50;;
66425;SDS011;53237;46.158;14.604;2024-03-23T06:36:09;3.75;;;2.80;;
66425;SDS011;53237;46.158;14.604;2024-03-23T06:38:35;4.10;;;2.70;;
66425;SDS011;53237;46.158;14.604;2024-03-23T06:41:03;4.40;;;3.03;;
66425;SDS011;53237;46.158;14.604;2024-03-23T06:43:29;3.88;;;2.97;;
66425;SDS011;53237;46.158;14.604;2024-03-23T06:45:55;3.53;;;2.80;;
66425;SDS011;53237;46.158;14.604;2024-03-23T06:48:21;3.15;;;2.70;;
66425;SDS011;53237;46.158;14.604;2024-03-23T06:50:47;4.78;;;3.30;;
66425;SDS011;53237;46.158;14.604;2024-03-23T06:53:13;3.08;;;2.47;;
66425;SDS011;53237;46.158;14.604;2024-03-23T06:55:40;4.50;;;3.10;;
66425;SDS011;53237;46.158;14.604;2024-03-23T06:58:06;2.80;;;2.50;;
66425;SDS011;53237;46.158;14.604;2024-03-23T07:00:32;4.45;;;3.00;;
66425;SDS011;53237;46.158;14.604;2024-03-23T07:02:59;4.65;;;2.95;;
66425;SDS011;53237;46.158;14.604;2024-03-23T07:05:25;7.15;;;4.07;;
66425;SDS011;53237;46.158;14.604;2024-03-23T07:07:51;3.72;;;2.90;;
66425;SDS011;53237;46.158;14.604;2024-03-23T07:10:17;3.95;;;2.83;;
66425;SDS011;53237;46.158;14.604;2024-03-23T07:12:43;5.75;;;3.60;;
66425;SDS011;53237;46.158;14.604;2024-03-23T07:15:09;6.45;;;4.53;;
66425;SDS011;53237;46.158;14.604;2024-03-23T07:17:36;7.07;;;3.72;;
66425;SDS011;53237;46.158;14.604;2024-03-23T07:20:02;11.13;;;6.35;;
66425;SDS011;53237;46.158;14.604;2024-03-23T07:22:32;4.70;;;3.45;;
66425;SDS011;53237;46.158;14.604;2024-03-23T07:25:01;6.50;;;3.53;;
66425;SDS011;53237;46.158;14.604;2024-03-23T07:27:28;5.93;;;3.85;;
66425;SDS011;53237;46.158;14.604;2024-03-23T07:29:54;4.45;;;3.45;;
66425;SDS011;53237;46.158;14.604;2024-03-23T07:32:20;7.53;;;4.43;;
66425;SDS011;53237;46.158;14.604;2024-03-23T07:34:46;6.82;;;4.95;;
66425;SDS011;53237;46.158;14.604;2024-03-23T07:37:12;6.93;;;3.90;;
66425;SDS011;53237;46.158;14.604;2024-03-23T07:39:39;5.00;;;3.95;;
66425;SDS011;53237;46.158;14.604;2024-03-23T07:42:05;7.72;;;4.78;;
66425;SDS011;53237;46.158;14.604;2024-03-23T07:44:31;6.00;;;4.65;;
66425;SDS011;53237;46.158;14.604;2024-03-23T07:46:58;7.28;;;5.47;;
66425;SDS011;53237;46.158;14.604;2024-03-23T07:49:24;5.60;;;4.50;;
66425;SDS011;53237;46.158;14.604;2024-03-23T07:51:50;8.88;;;8.07;;
66425;SDS011;53237;46.158;14.604;2024-03-23T07:54:16;8.32;;;5.90;;
66425;SDS011;53237;46.158;14.604;2024-03-23T07:56:42;10.88;;;5.82;;
66425;SDS011;53237;46.158;14.604;2024-03-23T07:59:08;10.07;;;5.53;;
66425;SDS011;53237;46.158;14.604;2024-03-23T08:01:34;8.25;;;5.47;;
66425;SDS011;53237;46.158;14.604;2024-03-23T08:04:00;8.68;;;6.00;;
66425;SDS011;53237;46.158;14.604;2024-03-23T08:06:26;8.13;;;5.60;;
66425;SDS011;53237;46.158;14.604;2024-03-23T08:08:54;10.85;;;6.93;;
66425;SDS011;53237;46.158;14.604;2024-03-23T08:11:27;9.23;;;8.32;;
66425;SDS011;53237;46.158;14.604;2024-03-23T08:13:53;9.25;;;4.85;;
66425;SDS011;53237;46.158;14.604;2024-03-23T08:16:19;6.72;;;6.00;;
66425;SDS011;53237;46.158;14.604;2024-03-23T08:18:46;5.15;;;4.65;;
66425;SDS011;53237;46.158;14.604;2024-03-23T08:21:12;5.78;;;4.05;;
66425;SDS011;53237;46.158;14.604;2024-03-23T08:23:38;9.45;;;8.40;;
66425;SDS011;53237;46.158;14.604;2024-03-23T08:26:08;14.10;;;6.18;;
66425;SDS011;53237;46.158;14.604;2024-03-23T08:28:35;7.13;;;6.53;;
66425;SDS011;53237;46.158;14.604;2024-03-23T08:31:02;9.20;;;6.22;;
66425;SDS011;53237;46.158;14.604;2024-03-23T08:33:28;7.65;;;6.80;;
66425;SDS011;53237;46.158;14.604;2024-03-23T08:38:21;7.40;;;6.70;;
66425;SDS011;53237;46.158;14.604;2024-03-23T08:40:47;9.05;;;6.15;;
66425;SDS011;53237;46.158;14.604;2024-03-23T08:43:13;7.10;;;4.30;;
66425;SDS011;53237;46.158;14.604;2024-03-23T08:45:39;6.75;;;6.15;;
66425;SDS011;53237;46.158;14.604;2024-03-23T08:48:05;9.00;;;8.07;;
66425;SDS011;53237;46.158;14.604;2024-03-23T08:50:32;7.45;;;6.38;;
66425;SDS011;53237;46.158;14.604;2024-03-23T08:52:58;10.10;;;6.13;;
66425;SDS011;53237;46.158;14.604;2024-03-23T08:55:23;8.07;;;7.28;;
66425;SDS011;53237;46.158;14.604;2024-03-23T08:57:49;7.60;;;6.63;;
66425;SDS011;53237;46.158;14.604;2024-03-23T09:00:15;7.28;;;6.53;;
66425;SDS011;53237;46.158;14.604;2024-03-23T09:02:42;7.93;;;7.22;;
66425;SDS011;53237;46.158;14.604;2024-03-23T09:05:08;7.93;;;7.13;;
66425;SDS011;53237;46.158;14.604;2024-03-23T09:07:34;7.70;;;6.63;;
66425;SDS011;53237;46.158;14.604;2024-03-23T09:10:00;8.18;;;7.45;;
66425;SDS011;53237;46.158;14.604;2024-03-23T09:12:26;6.80;;;6.10;;
66425;SDS011;53237;46.158;14.604;2024-03-23T09:14:52;6.63;;;6.03;;
66425;SDS011;53237;46.158;14.604;2024-03-23T09:17:18;6.53;;;5.93;;
66425;SDS011;53237;46.158;14.604;2024-03-23T09:19:44;7.35;;;6.65;;
66425;SDS011;53237;46.158;14.604;2024-03-23T09:22:10;7.13;;;6.05;;
66425;SDS011;53237;46.158;14.604;2024-03-23T09:24:36;6.28;;;5.72;;
66425;SDS011;53237;46.158;14.604;2024-03-23T09:27:04;5.97;;;5.47;;
66425;SDS011;53237;46.158;14.604;2024-03-23T09:29:30;15.32;;;6.28;;
66425;SDS011;53237;46.158;14.604;2024-03-23T09:31:56;6.18;;;5.10;;
66425;SDS011;53237;46.158;14.604;2024-03-23T09:34:22;12.30;;;11.00;;
66425;SDS011;53237;46.158;14.604;2024-03-23T09:36:50;8.80;;;7.90;;
66425;SDS011;53237;46.158;14.604;2024-03-23T09:39:17;15.60;;;14.02;;
66425;SDS011;53237;46.158;14.604;2024-03-23T09:41:43;10.73;;;9.73;;
66425;SDS011;53237;46.158;14.604;2024-03-23T09:44:09;5.97;;;5.47;;
66425;SDS011;53237;46.158;14.604;2024-03-23T09:46:35;7.43;;;6.35;;
66425;SDS011;53237;46.158;14.604;2024-03-23T09:49:01;7.07;;;6.32;;
66425;SDS011;53237;46.158;14.604;2024-03-23T09:51:31;5.80;;;5.13;;
66425;SDS011;53237;46.158;14.604;2024-03-23T09:53:57;5.28;;;4.78;;
66425;SDS011;53237;46.158;14.604;2024-03-23T09:56:23;4.28;;;3.38;;
66425;SDS011;53237;46.158;14.604;2024-03-23T09:58:49;4.20;;;3.80;;
66425;SDS011;53237;46.158;14.604;2024-03-23T10:01:15;4.95;;;3.63;;
66425;SDS011;53237;46.158;14.604;2024-03-23T10:03:42;3.25;;;2.95;;
66425;SDS011;53237;46.158;14.604;2024-03-23T10:06:08;3.95;;;3.20;;
66425;SDS011;53237;46.158;14.604;2024-03-23T10:08:34;3.92;;;2.83;;
66425;SDS011;53237;46.158;14.604;2024-03-23T10:11:12;2.92;;;2.70;;
66425;SDS011;53237;46.158;14.604;2024-03-23T10:13:38;4.10;;;2.85;;
66425;SDS011;53237;46.158;14.604;2024-03-23T10:16:06;3.95;;;2.88;;
66425;SDS011;53237;46.158;14.604;2024-03-23T10:18:32;2.88;;;2.58;;
66425;SDS011;53237;46.158;14.604;2024-03-23T10:23:34;2.63;;;2.30;;
66425;SDS011;53237;46.158;14.604;2024-03-23T10:26:13;4.45;;;2.42;;
66425;SDS011;53237;46.158;14.604;2024-03-23T10:29:12;2.13;;;1.77;;
66425;SDS011;53237;46.158;14.604;2024-03-23T10:31:33;2.08;;;1.90;;
66425;SDS011;53237;46.158;14.604;2024-03-23T10:34:02;2.40;;;1.90;;
66425;SDS011;53237;46.158;14.604;2024-03-23T10:36:29;1.75;;;1.65;;
66425;SDS011;53237;46.158;14.604;2024-03-23T10:38:55;2.42;;;2.17;;
66425;SDS011;53237;46.158;14.604;2024-03-23T10:41:25;2.42;;;1.90;;
66425;SDS011;53237;46.158;14.604;2024-03-23T10:43:51;1.83;;;1.73;;
66425;SDS011;53237;46.158;14.604;2024-03-23T10:46:17;1.83;;;1.73;;
66425;SDS011;53237;46.158;14.604;2024-03-23T10:48:43;3.20;;;1.88;;
66425;SDS011;53237;46.158;14.604;2024-03-23T10:51:10;2.45;;;1.60;;
66425;SDS011;53237;46.158;14.604;2024-03-23T10:53:36;1.60;;;1.50;;
66425;SDS011;53237;46.158;14.604;2024-03-23T10:56:02;1.75;;;1.52;;
66425;SDS011;53237;46.158;14.604;2024-03-23T10:58:31;1.55;;;1.23;;
66425;SDS011;53237;46.158;14.604;2024-03-23T11:00:58;1.75;;;1.50;;
66425;SDS011;53237;46.158;14.604;2024-03-23T11:05:57;1.73;;;1.63;;
66425;SDS011;53237;46.158;14.604;2024-03-23T11:08:30;2.40;;;2.20;;
66425;SDS011;53237;46.158;14.604;2024-03-23T11:11:12;2.97;;;2.58;;
66425;SDS011;53237;46.158;14.604;2024-03-23T11:13:38;2.85;;;2.40;;
66425;SDS011;53237;46.158;14.604;2024-03-23T11:16:17;4.15;;;3.60;;
66425;SDS011;53237;46.158;14.604;2024-03-23T11:18:47;5.43;;;4.93;;
66425;SDS011;53237;46.158;14.604;2024-03-23T11:21:51;4.57;;;4.18;;
66425;SDS011;53237;46.158;14.604;2024-03-23T11:24:14;5.13;;;4.63;;
66425;SDS011;53237;46.158;14.604;2024-03-23T11:26:41;4.30;;;3.85;;
66425;SDS011;53237;46.158;14.604;2024-03-23T11:29:10;5.53;;;4.35;;
66425;SDS011;53237;46.158;14.604;2024-03-23T11:31:37;4.80;;;4.38;;
66425;SDS011;53237;46.158;14.604;2024-03-23T11:34:06;4.82;;;4.40;;
66425;SDS011;53237;46.158;14.604;2024-03-23T11:36:32;4.90;;;4.20;;
66425;SDS011;53237;46.158;14.604;2024-03-23T11:38:58;3.90;;;3.50;;
66425;SDS011;53237;46.158;14.604;2024-03-23T11:41:24;2.92;;;2.63;;
66425;SDS011;53237;46.158;14.604;2024-03-23T11:43:51;3.42;;;2.28;;
66425;SDS011;53237;46.158;14.604;2024-03-23T11:46:23;6.68;;;2.28;;
66425;SDS011;53237;46.158;14.604;2024-03-23T11:48:49;4.32;;;2.17;;
66425;SDS011;53237;46.158;14.604;2024-03-23T11:51:18;3.65;;;1.98;;
66425;SDS011;53237;46.158;14.604;2024-03-23T11:53:45;3.25;;;1.98;;
66425;SDS011;53237;46.158;14.604;2024-03-23T11:56:11;3.88;;;2.22;;
66425;SDS011;53237;46.158;14.604;2024-03-23T11:58:37;1.75;;;1.52;;
66425;SDS011;53237;46.158;14.604;2024-03-23T12:01:03;3.55;;;1.70;;
66425;SDS011;53237;46.158;14.604;2024-03-23T12:03:30;3.90;;;1.60;;
66425;SDS011;53237;46.158;14.604;2024-03-23T12:06:01;3.33;;;1.48;;
66425;SDS011;53237;46.158;14.604;2024-03-23T12:08:31;1.73;;;1.40;;
66425;SDS011;53237;46.158;14.604;2024-03-23T12:13:33;1.55;;;1.33;;
66425;SDS011;53237;46.158;14.604;2024-03-23T12:18:39;3.20;;;1.65;;
66425;SDS011;53237;46.158;14.604;2024-03-23T12:21:05;3.28;;;1.70;;
66425;SDS011;53237;46.158;14.604;2024-03-23T12:23:32;1.85;;;1.65;;
66425;SDS011;53237;46.158;14.604;2024-03-23T12:25:58;1.63;;;1.50;;
66425;SDS011;53237;46.158;14.604;2024-03-23T12:28:24;1.90;;;1.73;;
66425;SDS011;53237;46.158;14.604;2024-03-23T12:30:51;1.67;;;1.58;;
66425;SDS011;53237;46.158;14.604;2024-03-23T12:33:20;2.20;;;1.77;;
66425;SDS011;53237;46.158;14.604;2024-03-23T12:35:46;2.22;;;2.03;;
66425;SDS011;53237;46.158;14.604;2024-03-23T12:38:12;2.00;;;1.60;;
66425;SDS011;53237;46.158;14.604;2024-03-23T12:40:39;2.70;;;2.30;;
66425;SDS011;53237;46.158;14.604;2024-03-23T12:43:06;2.45;;;1.90;;
66425;SDS011;53237;46.158;14.604;2024-03-23T12:45:32;3.00;;;2.08;;
66425;SDS011;53237;46.158;14.604;2024-03-23T12:47:58;2.22;;;1.95;;
66425;SDS011;53237;46.158;14.604;2024-03-23T12:50:24;2.42;;;2.10;;
66425;SDS011;53237;46.158;14.604;2024-03-23T12:52:50;3.08;;;2.08;;
66425;SDS011;53237;46.158;14.604;2024-03-23T12:55:16;2.70;;;2.15;;
66425;SDS011;53237;46.158;14.604;2024-03-23T12:57:43;3.22;;;2.30;;
66425;SDS011;53237;46.158;14.604;2024-03-23T13:00:09;2.83;;;2.53;;
66425;SDS011;53237;46.158;14.604;2024-03-23T13:02:36;3.33;;;2.38;;
66425;SDS011;53237;46.158;14.604;2024-03-23T13:05:03;5.18;;;2.17;;
66425;SDS011;53237;46.158;14.604;2024-03-23T13:07:29;3.53;;;1.98;;
66425;SDS011;53237;46.158;14.604;2024-03-23T13:09:55;3.40;;;1.77;;
66425;SDS011;53237;46.158;14.604;2024-03-23T13:12:22;3.72;;;1.92;;
66425;SDS011;53237;46.158;14.604;2024-03-23T13:14:48;2.90;;;2.33;;
66425;SDS011;53237;46.158;14.604;2024-03-23T13:17:14;2.80;;;2.17;;
66425;SDS011;53237;46.158;14.604;2024-03-23T13:19:40;2.40;;;2.10;;
66425;SDS011;53237;46.158;14.604;2024-03-23T13:22:06;2.33;;;2.13;;
66425;SDS011;53237;46.158;14.604;2024-03-23T13:24:32;2.67;;;2.47;;
66425;SDS011;53237;46.158;14.604;2024-03-23T13:26:58;2.45;;;2.25;;
66425;SDS011;53237;46.158;14.604;2024-03-23T13:29:24;2.08;;;1.95;;
66425;SDS011;53237;46.158;14.604;2024-03-23T13:31:51;2.40;;;2.20;;
66425;SDS011;53237;46.158;14.604;2024-03-23T13:34:17;3.10;;;2.10;;
66425;SDS011;53237;46.158;14.604;2024-03-23T13:36:44;3.17;;;2.53;;
66425;SDS011;53237;46.158;14.604;2024-03-23T13:39:10;7.55;;;6.75;;
66425;SDS011;53237;46.158;14.604;2024-03-23T13:41:40;3.45;;;2.90;;
66425;SDS011;53237;46.158;14.604;2024-03-23T13:44:06;2.90;;;2.60;;
66425;SDS011;53237;46.158;14.604;2024-03-23T13:46:33;3.05;;;2.75;;
66425;SDS011;53237;46.158;14.604;2024-03-23T13:48:59;3.00;;;2.70;;
66425;SDS011;53237;46.158;14.604;2024-03-23T13:51:26;2.55;;;2.30;;
66425;SDS011;53237;46.158;14.604;2024-03-23T13:53:53;2.47;;;2.20;;
66425;SDS011;53237;46.158;14.604;2024-03-23T13:56:19;2.47;;;2.28;;
66425;SDS011;53237;46.158;14.604;2024-03-23T13:58:45;2.65;;;2.30;;
66425;SDS011;53237;46.158;14.604;2024-03-23T14:01:12;2.80;;;2.60;;
66425;SDS011;53237;46.158;14.604;2024-03-23T14:03:38;2.60;;;2.40;;
66425;SDS011;53237;46.158;14.604;2024-03-23T14:06:04;3.25;;;2.95;;
66425;SDS011;53237;46.158;14.604;2024-03-23T14:08:32;3.00;;;2.70;;
66425;SDS011;53237;46.158;14.604;2024-03-23T14:11:00;4.55;;;3.17;;
66425;SDS011;53237;46.158;14.604;2024-03-23T14:13:27;3.88;;;3.47;;
66425;SDS011;53237;46.158;14.604;2024-03-23T14:15:53;4.35;;;3.88;;
66425;SDS011;53237;46.158;14.604;2024-03-23T14:18:19;4.78;;;4.00;;
66425;SDS011;53237;46.158;14.604;2024-03-23T14:20:47;4.20;;;3.80;;
66425;SDS011;53237;46.158;14.604;2024-03-23T14:23:13;4.68;;;3.92;;
66425;SDS011;53237;46.158;14.604;2024-03-23T14:25:39;4.13;;;3.72;;
66425;SDS011;53237;46.158;14.604;2024-03-23T14:28:05;4.25;;;3.70;;
66425;SDS011;53237;46.158;14.604;2024-03-23T14:30:38;4.85;;;4.10;;
66425;SDS011;53237;46.158;14.604;2024-03-23T14:33:04;4.10;;;3.72;;
66425;SDS011;53237;46.158;14.604;2024-03-23T14:35:30;3.97;;;3.55;;
66425;SDS011;53237;46.158;14.604;2024-03-23T14:37:57;4.10;;;3.70;;
66425;SDS011;53237;46.158;14.604;2024-03-23T14:40:23;4.10;;;3.70;;
66425;SDS011;53237;46.158;14.604;2024-03-23T14:42:53;4.25;;;3.78;;
66425;SDS011;53237;46.158;14.604;2024-03-23T14:45:19;4.10;;;3.70;;
66425;SDS011;53237;46.158;14.604;2024-03-23T14:47:45;4.13;;;3.72;;
66425;SDS011;53237;46.158;14.604;2024-03-23T14:50:11;3.67;;;3.38;;
66425;SDS011;53237;46.158;14.604;2024-03-23T14:52:40;3.92;;;3.63;;
66425;SDS011;53237;46.158;14.604;2024-03-23T14:55:06;4.88;;;4.00;;
66425;SDS011;53237;46.158;14.604;2024-03-23T14:57:34;6.07;;;4.38;;
66425;SDS011;53237;46.158;14.604;2024-03-23T15:00:00;4.40;;;4.00;;
66425;SDS011;53237;46.158;14.604;2024-03-23T15:02:26;3.88;;;3.58;;
66425;SDS011;53237;46.158;14.604;2024-03-23T15:04:53;4.10;;;3.80;;
66425;SDS011;53237;46.158;14.604;2024-03-23T15:07:19;4.90;;;4.00;;
66425;SDS011;53237;46.158;14.604;2024-03-23T15:09:45;4.20;;;3.80;;
66425;SDS011;53237;46.158;14.604;2024-03-23T15:12:11;4.10;;;3.70;;
66425;SDS011;53237;46.158;14.604;2024-03-23T15:14:37;5.25;;;3.95;;
66425;SDS011;53237;46.158;14.604;2024-03-23T15:17:03;4.82;;;4.32;;
66425;SDS011;53237;46.158;14.604;2024-03-23T15:19:34;4.28;;;3.85;;
66425;SDS011;53237;46.158;14.604;2024-03-23T15:22:00;4.57;;;4.15;;
66425;SDS011;53237;46.158;14.604;2024-03-23T15:24:26;4.85;;;4.13;;
66425;SDS011;53237;46.158;14.604;2024-03-23T15:26:52;5.15;;;4.65;;
66425;SDS011;53237;46.158;14.604;2024-03-23T15:29:18;5.20;;;4.13;;
66425;SDS011;53237;46.158;14.604;2024-03-23T15:31:44;4.25;;;3.85;;
66425;SDS011;53237;46.158;14.604;2024-03-23T15:34:11;4.40;;;3.95;;
66425;SDS011;53237;46.158;14.604;2024-03-23T15:36:37;4.80;;;3.88;;